Terminal Aerodrome Forecast
Issued by NWS

Home | Current Version | Previous Version | Text Only | Print | Product List | Glossary On
Versions: 1 2 3 4 5 6 7 8 9 10 11 12 13 14
000
FTUS45 KRIW 251120
TAFWRL
TAF
KWRL 251120Z 2512/2612 VRB05KT P6SM SCT250
     FM252300 01010KT P6SM BKN250
     FM260300 33014G20KT P6SM VCSH FEW030 BKN070
     FM261000 32007KT P6SM SCT070=

USA.gov is the U.S. government's official web portal to all federal, state and local government web resources and services.